Sam Mbakwe International Airport

DNIM · Imo, Nigeria

Storia di METAR DNIM · Sam Mbakwe International Airport

Di seguito sono riportati i METAR degli ultimi giorni. Seleziona un anno per sfogliare i METAR più vecchi, dall'anno 2007 in poi.

4 dicembre 2022

Tempo Codice Tempo metereologico Temp. Vista Base nuvolosa Vento METAR/SPECI
15:00
V
35 °C 10 km+ - 070° 070° 5 kt METAR DNEN 041400Z 07005KT 9999 FEW015 35/21 Q1007 NOSIG
14:00
V
35 °C 10 km+ - 150° 150° 5 kt METAR DNEN 041300Z 15005KT 9999 FEW015 35/21 Q1007 NOSIG
12:00
M
33 °C 10 km+ 1.400 ft 060° 060° 3 kt METAR DNEN 041100Z 06003KT 9999 BKN014 33/22 Q1010 NOSIG
11:00
V
31 °C 10 km+ - 250° 250° 5 kt METAR DNEN 041000Z 25005KT 9999 31/23 Q1011 NOSIG
09:00
V
28 °C 10 km+ - 170° 170° 3 kt METAR DNEN 040800Z 17003KT 9999 SCT011 28/25 Q1011 NOSIG
08:00
I
25 °C 3 km - Var 000° 0 kt METAR DNEN 040700Z 00000KT 3000 HZ NSC 25/23 Q1010 NOSIG

3 dicembre 2022

Tempo Codice Tempo metereologico Temp. Vista Base nuvolosa Vento METAR/SPECI
11:00
V
30 °C 8 km - 300° 300° 10 kt METAR DNEN 031000Z 30010KT 8000 FEW011 30/21 Q1009 NOSIG
09:00
M
25 °C 6 km - 300° 300° 3 kt METAR DNEN 030800Z 30003KT 6000 NSC 25/20 Q1010 NOSIG
08:00
M
20 °C 6 km - Var 000° 0 kt METAR DNEN 030700Z 00000KT 6000 NSC 20/17 Q1010 NOSIG
06:00
V
21 °C 8 km - Var 000° 0 kt METAR DNEN 030500Z 00000KT 8000 NSC 21/17 Q1008 NOSIG

2 dicembre 2022

Tempo Codice Tempo metereologico Temp. Vista Base nuvolosa Vento METAR/SPECI
23:00
V
24 °C 8 km - 220° 220° 5 kt METAR DNEN 022200Z 22005KT 8000 NSC 24/19 Q1009 NOSIG
17:00
V
33 °C 10 km+ - 030° 030° 6 kt METAR DNEN 021600Z 03006KT CAVOK 33/18 Q1006 NOSIG
15:00
V
34 °C 10 km+ - 060° 060° 4 kt METAR DNEN 021400Z 06004KT 9999 FEW014 34/17 Q1007 NOSIG
14:00
V
34 °C 10 km+ - 320° 320° 4 kt METAR DNEN 021300Z 32004KT 9999 FEW014 34/18 Q1007 NOSIG
12:00
V
33 °C 10 km+ - 090° 090° 5 kt METAR DNEN 021100Z 09005KT 9999 FEW013 33/19 Q1010 NOSIG
11:00
V
30 °C 10 km+ - 030° 030° 4 kt METAR DNEN 021000Z 03004KT CAVOK 30/24 Q1011 NOSIG

Noi e le terze parti seguiamo il tuo comportamento su internet con i cookie. Se continui, riteniamo che tu sia d'accordo con la nostra Politica sui cookie.